BEL2LZ EBBR-LEBL
Flight info
| Callsign | BEL2LZ |
|---|---|
| Flight time | N/A |
| Altitude | 33000 |
| Route | CIV N872 LESDO DCT KOVIN DCT DUCRA/N0450F390 UM728 RESMI UN857 DISAK DCT DIRMO DCT VALKU DCT ATSUP DCT MINSO DCT DEGOL DCT PPG DCT ALBER |
| Aircraft | A320/M-SDE3FGHIRWY/LB1 |
Departure
| Time | 2026-05-05 18:57 |
|---|---|
| Airport | Brussels Airport (EBBR) |
Arrival
| Time | N/A |
|---|---|
| Airport | Josep Tarradellas Barcelona-El Prat Airport (LEBL) |
| Time | Latitude | Longitude | Altitude | Speed | Heading |
|---|---|---|---|---|---|
| 2026-05-05 18:16 | 50.90362 | 4.48882 | 121 ft | 0 kts | 335° |
| 2026-05-05 18:48 | 50.90355 | 4.48887 | 121 ft | 4 kts | 336° |
| 2026-05-05 18:48 | 50.90330 | 4.48902 | 122 ft | 4 kts | 344° |
| 2026-05-05 18:49 | 50.90305 | 4.48910 | 123 ft | 4 kts | 0° |
| 2026-05-05 18:49 | 50.90282 | 4.48902 | 124 ft | 4 kts | 50° |
| 2026-05-05 18:49 | 50.90276 | 4.48888 | 124 ft | 1 kts | 65° |
| 2026-05-05 18:49 | 50.90276 | 4.48887 | 124 ft | 1 kts | 65° |
| 2026-05-05 18:52 | 50.90313 | 4.49010 | 124 ft | 25 kts | 64° |
| 2026-05-05 18:52 | 50.90386 | 4.49269 | 124 ft | 25 kts | 65° |
| 2026-05-05 18:52 | 50.90378 | 4.49452 | 124 ft | 11 kts | 166° |
| 2026-05-05 18:53 | 50.90329 | 4.49432 | 125 ft | 9 kts | 196° |
| 2026-05-05 18:53 | 50.90182 | 4.49367 | 129 ft | 32 kts | 195° |
| 2026-05-05 18:53 | 50.89969 | 4.49279 | 134 ft | 31 kts | 193° |
| 2026-05-05 18:53 | 50.89779 | 4.49200 | 145 ft | 28 kts | 195° |
| 2026-05-05 18:54 | 50.89604 | 4.49094 | 154 ft | 25 kts | 210° |
| 2026-05-05 18:54 | 50.89444 | 4.49022 | 160 ft | 23 kts | 189° |
| 2026-05-05 18:54 | 50.89320 | 4.49079 | 167 ft | 0 kts | 185° |
| 2026-05-05 18:55 | 50.89317 | 4.49078 | 167 ft | 3 kts | 185° |
| 2026-05-05 18:55 | 50.89171 | 4.49037 | 176 ft | 25 kts | 173° |
| 2026-05-05 18:55 | 50.89153 | 4.49115 | 176 ft | 7 kts | 80° |
| 2026-05-05 18:56 | 50.89170 | 4.49193 | 176 ft | 13 kts | 70° |
| 2026-05-05 18:56 | 50.89293 | 4.49720 | 177 ft | 90 kts | 70° |
| 2026-05-05 18:56 | 50.89583 | 4.50985 | 176 ft | 152 kts | 70° |
| 2026-05-05 18:56 | 50.89948 | 4.52641 | 683 ft | 159 kts | 68° |
| 2026-05-05 18:57 | 50.90417 | 4.54247 | 1371 ft | 161 kts | 63° |
| 2026-05-05 18:57 | 50.90934 | 4.55812 | 2083 ft | 162 kts | 62° |